Time;durP1;ratioP1;P1;durP2;ratioP2;P2;SDS_P1;SDS_P2;PMS_P1;PMS_P2;Temp;Humidity;BMP_temperature;BMP_pressure;BME280_temperature;BME280_humidity;BME280_pressure;Samples;Min_cycle;Max_cycle;Signal;HPM_P1;HPM_P2
2023/07/06 00:01:29;;;;;;;5.18;2.78;;;;;;;15.18;53.09;100898.84;7395959;19;20407;-66
2023/07/06 00:03:59;;;;;;;;;;;;;;;15.11;53.03;100890.31;7395058;19;20019;-66
2023/07/06 00:06:28;;;;;;;5.82;2.63;;;;;;;15.06;52.93;100893.13;7394557;19;19915;-66
2023/07/06 00:08:57;;;;;;;5.82;3.47;;;;;;;15.01;53.05;100894.22;7396164;19;20018;-66
2023/07/06 00:11:26;;;;;;;3.70;2.70;;;;;;;14.96;53.40;100905.84;7395748;19;20015;-66
2023/07/06 00:13:54;;;;;;;5.15;2.53;;;;;;;14.94;53.42;100898.91;7394833;19;20026;-66
2023/07/06 00:16:26;;;;;;;5.32;3.05;;;;;;;14.90;53.68;100908.72;7394712;19;20430;-66
2023/07/06 00:18:58;;;;;;;6.63;2.60;;;;;;;14.88;53.83;100907.03;7395877;19;20021;-66
2023/07/06 00:21:27;;;;;;;6.13;2.60;;;;;;;14.82;53.98;100901.06;7396186;19;20018;-66
2023/07/06 00:23:57;;;;;;;6.50;2.40;;;;;;;14.78;54.11;100898.59;7394204;19;20417;-66
2023/07/06 00:26:25;;;;;;;5.88;3.03;;;;;;;14.74;54.48;100904.91;7395553;19;20078;-66
2023/07/06 00:28:55;;;;;;;5.22;2.55;;;;;;;14.68;54.46;100903.34;7395437;19;20019;-66
2023/07/06 00:31:50;;;;;;;5.57;2.97;;;;;;;14.64;54.56;100909.63;7395358;19;20028;-66
2023/07/06 00:34:19;;;;;;;5.00;3.00;;;;;;;14.60;54.63;100913.31;7393742;19;20014;-66
2023/07/06 00:36:48;;;;;;;8.20;3.03;;;;;;;14.56;54.94;100917.81;7393587;19;20031;-66
2023/07/06 00:39:17;;;;;;;6.00;3.35;;;;;;;14.53;55.23;100917.91;7395210;19;20022;-66
2023/07/06 00:41:46;;;;;;;5.47;3.00;;;;;;;14.49;55.08;100926.88;7395284;19;20018;-66
2023/07/06 00:44:44;;;;;;;10.13;2.95;;;;;;;14.45;55.58;100926.13;7393712;19;20018;-66
2023/07/06 00:47:16;;;;;;;7.50;3.08;;;;;;;14.42;55.57;100934.16;7394556;19;20018;-66
2023/07/06 00:49:45;;;;;;;6.90;3.20;;;;;;;14.39;55.77;100934.25;7395412;19;20046;-66
2023/07/06 00:52:15;;;;;;;5.50;2.78;;;;;;;14.35;56.01;100937.91;7394556;19;20497;-66
2023/07/06 00:54:45;;;;;;;6.60;3.30;;;;;;;14.30;55.98;100935.41;7392709;19;20039;-66
2023/07/06 00:57:18;;;;;;;6.07;3.10;;;;;;;14.28;56.03;100942.53;7392665;19;20014;-66
2023/07/06 00:59:49;;;;;;;6.75;3.33;;;;;;;14.27;56.17;100939.97;7395122;19;20022;-66
2023/07/06 01:02:21;;;;;;;6.75;2.90;;;;;;;14.23;56.52;100938.31;7392481;19;20017;-66
2023/07/06 01:04:51;;;;;;;6.32;3.17;;;;;;;14.20;56.48;100939.28;7392030;19;20014;-66
2023/07/06 01:07:24;;;;;;;5.35;2.92;;;;;;;14.18;56.62;100941.13;7394145;19;20383;-66
2023/07/06 01:09:53;;;;;;;7.43;3.17;;;;;;;14.14;56.92;100934.22;7392900;19;20022;-66
2023/07/06 01:12:24;;;;;;;7.88;2.97;;;;;;;14.11;56.75;100939.59;7394373;19;20108;-68
2023/07/06 01:14:54;;;;;;;7.82;3.33;;;;;;;14.10;56.89;100940.50;7392376;19;20169;-66
2023/07/06 01:17:33;;;;;;;6.07;3.30;;;;;;;14.08;57.26;100932.66;7392381;19;20022;-66
2023/07/06 01:20:21;;;;;;;5.25;3.20;;;;;;;14.07;57.08;100938.84;7392664;19;20018;-66
2023/07/06 01:23:22;;;;;;;6.45;3.05;;;;;;;14.06;57.41;100933.63;7393962;19;20019;-66
2023/07/06 01:26:07;;;;;;;7.07;3.58;;;;;;;14.06;57.14;100933.63;7392158;19;20407;-66
2023/07/06 01:29:14;;;;;;;6.68;3.17;;;;;;;14.06;57.39;100939.75;7394366;19;20039;-66
2023/07/06 01:31:51;;;;;;;6.97;2.97;;;;;;;14.03;57.42;100937.22;7393969;19;20019;-66
2023/07/06 01:34:25;;;;;;;7.80;3.30;;;;;;;14.01;57.62;100931.13;7392293;19;20014;-66
2023/07/06 01:37:02;;;;;;;5.82;3.13;;;;;;;13.97;57.77;100934.78;7391905;19;20488;-66
2023/07/06 01:39:31;;;;;;;8.52;3.92;;;;;;;13.95;57.78;100934.84;7393684;19;20022;-66
2023/07/06 01:42:25;;;;;;;5.30;2.80;;;;;;;13.93;58.13;100943.72;7393504;19;20078;-66
2023/07/06 01:44:56;;;;;;;7.13;3.60;;;;;;;13.90;57.97;100947.31;7391140;19;20347;-66
2023/07/06 01:47:28;;;;;;;5.35;3.33;;;;;;;13.88;58.01;100948.28;7393095;19;20011;-66
2023/07/06 01:50:01;;;;;;;5.88;3.00;;;;;;;13.86;58.26;100945.69;7394309;19;20019;-66
2023/07/06 01:52:42;;;;;;;4.82;3.28;;;;;;;13.84;58.37;100947.53;7391680;19;20019;-66
2023/07/06 01:55:20;;;;;;;5.95;3.17;;;;;;;13.83;58.28;100941.38;7392912;19;20015;-66
2023/07/06 01:57:54;;;;;;;3.72;2.90;;;;;;;13.82;58.49;100944.91;7393630;19;20036;-66
2023/07/06 02:00:24;;;;;;;6.35;2.95;;;;;;;13.78;58.34;100947.72;7395400;19;20018;-66
2023/07/06 02:02:56;;;;;;;4.38;3.03;;;;;;;13.74;58.66;100946.09;7399748;19;20019;-66
2023/07/06 02:05:26;;;;;;;5.38;3.13;;;;;;;13.70;58.72;100947.97;7397297;19;20020;-66
2023/07/06 02:07:55;;;;;;;5.07;3.50;;;;;;;13.67;58.75;100955.94;7400608;19;20051;-65
2023/07/06 02:10:24;;;;;;;7.18;3.40;;;;;;;13.63;58.80;100951.69;7399764;19;20506;-65
2023/07/06 02:12:52;;;;;;;4.93;3.40;;;;;;;13.61;59.27;100958.78;7399348;19;20019;-66
2023/07/06 02:15:21;;;;;;;5.55;3.03;;;;;;;13.55;59.26;100957.19;7399834;19;20150;-66
2023/07/06 02:17:50;;;;;;;5.25;3.20;;;;;;;13.51;59.86;100956.44;7396708;19;20432;-66
2023/07/06 02:20:21;;;;;;;5.13;3.10;;;;;;;13.45;59.87;100956.63;7400814;19;20018;-67
2023/07/06 02:22:50;;;;;;;7.30;3.65;;;;;;;13.42;59.91;100963.75;7398735;19;20046;-66
2023/07/06 02:25:20;;;;;;;5.20;3.08;;;;;;;13.36;60.29;100955.09;7400707;19;20010;-66
2023/07/06 02:27:48;;;;;;;7.80;3.70;;;;;;;13.32;60.42;100955.22;7397187;19;20034;-66
2023/07/06 02:30:17;;;;;;;6.22;3.30;;;;;;;13.29;60.65;100955.31;7397677;19;20026;-66
2023/07/06 02:32:46;;;;;;;6.03;3.40;;;;;;;13.23;60.84;100956.38;7397475;19;20027;-66
2023/07/06 02:35:15;;;;;;;7.32;3.78;;;;;;;13.19;60.92;100957.34;7396909;19;20140;-66
2023/07/06 02:37:46;;;;;;;7.63;3.47;;;;;;;13.15;61.03;100959.22;7396484;19;20023;-65
2023/07/06 02:40:17;;;;;;;6.05;3.55;;;;;;;13.11;61.11;100957.56;7399337;19;20026;-66
2023/07/06 02:42:45;;;;;;;7.03;3.88;;;;;;;13.07;61.32;100961.22;7398797;19;20018;-66
2023/07/06 02:45:14;;;;;;;5.45;3.67;;;;;;;13.04;61.42;100963.91;7396672;19;20022;-66
2023/07/06 02:47:43;;;;;;;7.32;3.90;;;;;;;13.00;61.61;100971.06;7398519;19;20471;-66
2023/07/06 02:50:14;;;;;;;6.65;4.55;;;;;;;12.98;61.65;100978.16;7398835;19;20018;-66
2023/07/06 02:52:44;;;;;;;7.30;3.33;;;;;;;12.95;61.74;100972.94;7396656;19;20023;-66
2023/07/06 02:55:16;;;;;;;6.57;3.92;;;;;;;12.92;61.90;100973.03;7398999;19;20018;-67
2023/07/06 02:57:44;;;;;;;7.78;3.70;;;;;;;12.87;62.16;100973.16;7396983;19;20027;-67
2023/07/06 03:00:16;;;;;;;7.13;3.42;;;;;;;12.84;62.25;100977.69;7398386;19;20022;-67
2023/07/06 03:02:45;;;;;;;4.82;3.38;;;;;;;12.82;62.43;100979.47;7398083;19;20035;-67
2023/07/06 03:05:23;;;;;;;6.82;3.55;;;;;;;12.78;62.31;100976.06;7396461;19;20031;-67
2023/07/06 03:07:57;;;;;;;6.07;3.22;;;;;;;12.76;62.51;100980.50;7398487;19;20022;-67
2023/07/06 03:10:30;;;;;;;6.60;3.53;;;;;;;12.75;62.58;100980.53;7395773;19;20039;-67
2023/07/06 03:12:59;;;;;;;9.75;3.60;;;;;;;12.73;62.52;100977.94;7397560;19;20344;-67
2023/07/06 03:15:28;;;;;;;5.93;3.20;;;;;;;12.73;62.83;100982.38;7397984;19;20388;-67
2023/07/06 03:17:57;;;;;;;10.13;4.13;;;;;;;12.72;62.68;100978.84;7395447;19;20086;-67
2023/07/06 03:20:26;;;;;;;5.05;3.83;;;;;;;12.70;62.68;100986.81;7397442;19;20355;-67
2023/07/06 03:22:55;;;;;;;7.15;3.30;;;;;;;12.70;62.86;100984.16;7398762;19;20018;-67
2023/07/06 03:25:30;;;;;;;11.27;3.90;;;;;;;12.70;62.96;100988.53;7395162;19;20017;-67
2023/07/06 03:27:59;;;;;;;7.25;4.10;;;;;;;12.68;63.08;100980.69;7397750;19;20022;-68
2023/07/06 03:30:30;;;;;;;7.80;4.00;;;;;;;12.68;63.24;100990.38;7396915;19;20011;-67
2023/07/06 03:32:59;;;;;;;6.53;3.60;;;;;;;12.65;63.01;100986.06;7396983;19;20033;-67
2023/07/06 03:35:28;;;;;;;8.88;3.45;;;;;;;12.65;63.23;100991.31;7396796;19;20517;-67
2023/07/06 03:37:58;;;;;;;6.50;4.00;;;;;;;12.64;62.85;100989.59;7394916;19;20014;-67
2023/07/06 03:40:30;;;;;;;6.47;3.78;;;;;;;12.65;63.59;100990.44;7394901;19;20018;-67
2023/07/06 03:43:01;;;;;;;7.57;4.05;;;;;;;12.64;63.41;101001.91;7396692;19;20022;-67
2023/07/06 03:45:30;;;;;;;6.05;3.97;;;;;;;12.65;63.56;101003.59;7395273;19;20022;-67
2023/07/06 03:48:00;;;;;;;6.82;3.75;;;;;;;12.66;63.58;101005.34;7396369;19;20364;-67
2023/07/06 03:50:31;;;;;;;8.35;3.33;;;;;;;12.68;63.59;101014.06;7395439;19;20019;-67
2023/07/06 03:53:03;;;;;;;7.72;3.72;;;;;;;12.68;63.82;101014.91;7396809;19;20022;-67
2023/07/06 03:55:34;;;;;;;5.75;3.40;;;;;;;12.71;63.92;101019.25;7397162;19;20040;-67
2023/07/06 03:58:02;;;;;;;6.85;3.67;;;;;;;12.74;63.86;101023.56;7395454;19;20032;-67
2023/07/06 04:00:31;;;;;;;6.70;4.75;;;;;;;12.75;63.86;101020.03;7396592;19;20021;-67
2023/07/06 04:03:03;;;;;;;4.85;3.20;;;;;;;12.78;63.95;101027.88;7395329;19;20025;-67
2023/07/06 04:05:34;;;;;;;9.90;3.72;;;;;;;12.79;64.00;101030.44;7395330;19;20028;-67
2023/07/06 04:08:05;;;;;;;6.72;3.95;;;;;;;12.81;64.12;101031.25;7395686;19;20430;-67
2023/07/06 04:10:38;;;;;;;6.75;3.38;;;;;;;12.83;64.19;101021.56;7396201;19;20038;-67
2023/07/06 04:13:08;;;;;;;4.00;3.00;;;;;;;12.86;64.11;101032.03;7394727;19;20074;-67
2023/07/06 04:15:37;;;;;;;6.00;3.53;;;;;;;12.88;64.22;101027.56;7394041;19;20482;-67
2023/07/06 04:18:06;;;;;;;4.63;3.33;;;;;;;12.90;64.42;101024.03;7394031;19;20018;-67
2023/07/06 04:20:36;;;;;;;6.68;3.67;;;;;;;12.92;64.28;101027.50;7395595;19;20075;-67
2023/07/06 04:23:06;;;;;;;8.65;3.85;;;;;;;12.94;64.44;101031.81;7393882;19;20078;-66
2023/07/06 04:25:37;;;;;;;6.28;3.63;;;;;;;12.98;64.51;101032.59;7395502;19;20035;-67
2023/07/06 04:28:07;;;;;;;7.22;3.85;;;;;;;13.00;64.41;101031.66;7395821;19;20090;-67
2023/07/06 04:30:37;;;;;;;5.90;3.75;;;;;;;13.03;64.37;101038.59;7395885;19;20029;-67
2023/07/06 04:33:09;;;;;;;7.63;4.32;;;;;;;13.06;64.32;101040.28;7394076;19;20015;-66
2023/07/06 04:35:38;;;;;;;5.20;3.63;;;;;;;13.09;64.39;101038.44;7394116;19;20019;-67
2023/07/06 04:38:07;;;;;;;8.20;3.80;;;;;;;13.13;64.46;101041.81;7393655;19;20020;-66
2023/07/06 04:40:41;;;;;;;7.57;3.53;;;;;;;13.17;64.56;101041.72;7392445;19;20354;-66
2023/07/06 04:43:09;;;;;;;;;;;;;;;13.20;64.64;101046.91;7395012;19;20025;-67
2023/07/06 04:45:38;;;;;;;8.80;3.88;;;;;;;13.24;63.96;101046.81;7394968;19;19947;-67
2023/07/06 04:48:08;;;;;;;10.68;3.75;;;;;;;13.29;64.12;101047.53;7393069;19;20094;-67
2023/07/06 04:50:37;;;;;;;9.57;4.07;;;;;;;13.33;64.63;101049.19;7392486;19;20099;-67
2023/07/06 04:53:07;;;;;;;7.25;3.72;;;;;;;13.39;64.34;101049.03;7393271;19;20025;-67
2023/07/06 04:55:38;;;;;;;8.55;4.28;;;;;;;13.44;64.54;101049.75;7396098;19;20061;-67
2023/07/06 04:58:08;;;;;;;6.18;3.92;;;;;;;13.50;64.56;101057.50;7392649;19;20018;-69
2023/07/06 05:00:39;;;;;;;7.18;3.65;;;;;;;13.57;64.54;101050.25;7394038;19;20099;-67
2023/07/06 05:03:10;;;;;;;6.50;4.03;;;;;;;13.60;64.59;101047.56;7392119;19;20022;-67
2023/07/06 05:05:47;;;;;;;6.40;4.10;;;;;;;13.63;64.45;101046.59;7391319;19;20021;-67
2023/07/06 05:08:22;;;;;;;7.38;3.42;;;;;;;13.71;64.93;101055.16;7392759;19;20517;-67
2023/07/06 05:10:54;;;;;;;8.18;4.00;;;;;;;13.77;64.49;101056.72;7392900;19;20043;-67
2023/07/06 05:13:24;;;;;;;6.65;3.30;;;;;;;13.81;64.54;101059.25;7392393;19;20019;-67
2023/07/06 05:15:53;;;;;;;7.65;3.70;;;;;;;13.88;64.44;101059.06;7393157;19;20089;-67
2023/07/06 05:18:22;;;;;;;5.80;3.40;;;;;;;13.91;64.59;101067.72;7390069;19;20018;-67
2023/07/06 05:20:51;;;;;;;7.68;3.90;;;;;;;13.95;64.56;101060.56;7393176;19;20015;-67
2023/07/06 05:23:21;;;;;;;7.47;3.80;;;;;;;13.98;64.53;101064.00;7391561;19;20018;-68
2023/07/06 05:25:57;;;;;;;4.88;3.40;;;;;;;14.01;64.50;101065.66;7392850;19;20086;-68
2023/07/06 05:28:25;;;;;;;5.32;3.70;;;;;;;14.06;64.38;101063.75;7393412;19;20474;-66
2023/07/06 05:30:54;;;;;;;6.43;3.63;;;;;;;14.11;64.46;101072.38;7391695;19;20078;-67
2023/07/06 05:33:22;;;;;;;10.35;4.25;;;;;;;14.15;64.52;101071.38;7392671;19;20018;-69
2023/07/06 05:35:51;;;;;;;15.88;3.97;;;;;;;14.21;64.52;101077.38;7396833;19;20029;-66
2023/07/06 05:38:19;;;;;;;7.03;4.45;;;;;;;14.27;64.22;101072.75;7398881;19;20066;-69
2023/07/06 05:40:48;;;;;;;11.35;3.85;;;;;;;14.33;64.40;101082.25;7397675;19;20021;-67
2023/07/06 05:43:21;;;;;;;6.95;3.45;;;;;;;14.40;64.22;101081.16;7397528;19;20359;-69
2023/07/06 05:45:50;;;;;;;7.20;3.70;;;;;;;14.44;64.44;101090.69;7398058;19;20383;-68
2023/07/06 05:48:18;;;;;;;5.57;3.10;;;;;;;14.51;64.42;101091.38;7398249;19;20355;-69
2023/07/06 05:50:47;;;;;;;7.78;3.75;;;;;;;14.58;64.29;101092.88;7400253;19;20090;-69
2023/07/06 05:53:15;;;;;;;6.07;3.95;;;;;;;14.65;64.44;101094.44;7399369;19;20074;-68
2023/07/06 05:55:44;;;;;;;4.63;3.53;;;;;;;14.72;64.17;101092.47;7400580;19;20074;-68
2023/07/06 05:58:13;;;;;;;5.30;3.30;;;;;;;14.79;64.17;101093.97;7397373;19;20018;-68
2023/07/06 06:00:44;;;;;;;5.82;3.25;;;;;;;14.90;64.29;101103.31;7400756;19;20018;-68
2023/07/06 06:03:12;;;;;;;6.10;3.33;;;;;;;14.96;64.36;101108.38;7399301;19;20025;-69
2023/07/06 06:05:42;;;;;;;5.55;3.10;;;;;;;15.03;63.95;101112.56;7398649;19;20042;-68
2023/07/06 06:08:10;;;;;;;5.07;3.00;;;;;;;15.11;63.99;101101.72;7397508;19;20003;-68
2023/07/06 06:10:39;;;;;;;5.65;2.90;;;;;;;15.19;63.82;101104.97;7396995;19;20020;-69
2023/07/06 06:13:08;;;;;;;4.35;2.90;;;;;;;15.26;63.86;101111.75;7397126;19;20541;-69
2023/07/06 06:15:36;;;;;;;7.72;3.35;;;;;;;15.34;63.93;101106.16;7397882;19;20600;-68
2023/07/06 06:18:09;;;;;;;6.82;3.30;;;;;;;15.41;63.73;101105.03;7396811;19;20017;-68
2023/07/06 06:20:38;;;;;;;6.60;3.38;;;;;;;15.50;63.43;101110.94;7397807;19;20039;-68
2023/07/06 06:23:10;;;;;;;4.10;2.78;;;;;;;15.57;63.57;101104.47;7398991;19;20029;-68
2023/07/06 06:25:38;;;;;;;4.00;2.95;;;;;;;15.64;63.16;101109.50;7400071;19;20015;-68
2023/07/06 06:28:09;;;;;;;4.38;3.00;;;;;;;15.69;62.98;101109.31;7399500;19;20426;-68
2023/07/06 06:30:38;;;;;;;5.32;2.88;;;;;;;15.77;62.74;101109.03;7397029;19;20021;-67
2023/07/06 06:33:10;;;;;;;4.53;2.80;;;;;;;15.86;62.88;101102.56;7397997;19;20031;-67
2023/07/06 06:35:39;;;;;;;5.18;3.15;;;;;;;15.93;62.49;101112.84;7399019;19;20074;-67
2023/07/06 06:38:07;;;;;;;7.28;3.78;;;;;;;15.99;62.47;101109.13;7397360;19;20037;-68
2023/07/06 06:40:36;;;;;;;5.53;3.97;;;;;;;16.07;62.09;101111.47;7396409;19;20015;-68
2023/07/06 06:43:04;;;;;;;8.20;3.92;;;;;;;16.14;62.21;101112.97;7397935;19;20025;-68
2023/07/06 06:45:33;;;;;;;6.07;3.38;;;;;;;16.21;61.80;101114.41;7397742;19;20028;-68
2023/07/06 06:48:02;;;;;;;6.75;3.28;;;;;;;16.29;61.87;101111.50;7398185;19;20481;-69
2023/07/06 06:50:33;;;;;;;5.10;2.70;;;;;;;16.37;61.49;101117.31;7395343;19;20390;-69
2023/07/06 06:53:02;;;;;;;10.65;3.40;;;;;;;16.45;61.60;101117.91;7397735;19;20332;-69
2023/07/06 06:55:31;;;;;;;5.57;2.70;;;;;;;16.53;61.22;101114.94;7398070;19;20050;-69
2023/07/06 06:57:59;;;;;;;8.68;3.13;;;;;;;16.60;60.98;101119.06;7396487;19;20070;-69
2023/07/06 07:00:27;;;;;;;6.43;2.75;;;;;;;16.68;60.47;101123.16;7397781;19;20021;-70
2023/07/06 07:02:57;;;;;;;7.05;3.08;;;;;;;16.74;60.30;101125.56;7397752;19;20023;-69
2023/07/06 07:05:26;;;;;;;3.83;3.03;;;;;;;16.82;60.31;101122.59;7397329;19;20478;-68
2023/07/06 07:07:57;;;;;;;7.07;3.72;;;;;;;16.89;59.88;101124.91;7396467;19;20039;-68
2023/07/06 07:10:26;;;;;;;4.20;2.90;;;;;;;16.97;59.76;101121.97;7395768;19;20435;-65
2023/07/06 07:12:54;;;;;;;4.75;2.55;;;;;;;17.06;59.40;101126.88;7397116;19;20035;-67
2023/07/06 07:15:24;;;;;;;7.10;3.70;;;;;;;17.13;59.14;101126.63;7397717;19;20082;-68
2023/07/06 07:17:55;;;;;;;3.95;3.10;;;;;;;17.20;58.68;101122.75;7396686;19;20066;-68
2023/07/06 07:20:26;;;;;;;5.20;3.70;;;;;;;17.30;58.46;101128.53;7394503;19;20011;-67
2023/07/06 07:22:58;;;;;;;5.28;2.97;;;;;;;17.39;57.93;101125.50;7395849;19;20014;-68
2023/07/06 07:25:27;;;;;;;5.22;3.38;;;;;;;17.49;57.85;101128.56;7396999;19;20010;-68
2023/07/06 07:27:55;;;;;;;6.90;2.97;;;;;;;17.55;57.51;101133.59;7395702;19;20477;-68
2023/07/06 07:30:26;;;;;;;6.32;3.85;;;;;;;17.64;57.58;101138.53;7397740;19;20023;-68
2023/07/06 07:32:54;;;;;;;6.13;3.58;;;;;;;17.69;57.29;101131.22;7394908;19;20378;-69
2023/07/06 07:35:22;;;;;;;4.15;3.40;;;;;;;17.79;57.25;101126.31;7394998;19;20010;-68
2023/07/06 07:37:51;;;;;;;9.05;3.92;;;;;;;17.85;56.84;101130.50;7396608;19;20029;-67
2023/07/06 07:40:22;;;;;;;4.68;3.50;;;;;;;17.91;56.53;101127.56;7396816;19;20014;-68
2023/07/06 07:42:51;;;;;;;4.63;3.60;;;;;;;17.96;56.24;101128.25;7394693;19;20023;-68
2023/07/06 07:45:21;;;;;;;7.82;3.88;;;;;;;18.02;56.33;101127.09;7396689;19;20434;-68
2023/07/06 07:47:49;;;;;;;4.43;3.60;;;;;;;18.09;56.50;101120.56;7397114;19;20021;-68
2023/07/06 07:50:18;;;;;;;6.82;3.70;;;;;;;18.17;56.33;101128.16;7396651;19;20014;-68
2023/07/06 07:52:48;;;;;;;5.18;3.70;;;;;;;18.21;56.42;101130.59;7396248;19;20006;-69
2023/07/06 07:55:17;;;;;;;4.05;3.63;;;;;;;18.24;56.12;101134.91;7394115;19;20095;-68
2023/07/06 07:57:48;;;;;;;7.75;3.22;;;;;;;18.25;56.23;101131.31;7394460;19;20041;-68
2023/07/06 08:00:18;;;;;;;6.68;3.45;;;;;;;18.23;55.85;101133.19;7396027;19;20361;-68
2023/07/06 08:02:47;;;;;;;11.45;3.70;;;;;;;18.22;56.13;101144.72;7396075;19;20029;-68
2023/07/06 08:05:16;;;;;;;7.60;4.57;;;;;;;18.27;56.14;101141.88;7395892;19;20025;-68
2023/07/06 08:07:45;;;;;;;5.75;3.67;;;;;;;18.32;56.39;101140.69;7393889;19;20035;-68
2023/07/06 08:10:14;;;;;;;7.32;3.65;;;;;;;18.40;56.00;101138.53;7396156;19;20489;-70
2023/07/06 08:12:42;;;;;;;8.65;3.75;;;;;;;18.51;56.12;101139.81;7395892;19;20014;-69
2023/07/06 08:15:14;;;;;;;5.00;3.78;;;;;;;18.63;55.50;101141.03;7396008;19;20028;-68
2023/07/06 08:17:42;;;;;;;9.40;3.67;;;;;;;18.75;55.21;101131.56;7395508;19;20062;-68
2023/07/06 08:20:13;;;;;;;3.90;3.50;;;;;;;18.85;55.33;101139.00;7396013;19;20085;-69
2023/07/06 08:22:42;;;;;;;5.53;3.40;;;;;;;18.94;55.11;101142.16;7394224;19;20015;-69
2023/07/06 08:25:10;;;;;;;8.88;3.80;;;;;;;19.00;55.06;101142.72;7394109;19;20044;-68
2023/07/06 08:27:39;;;;;;;7.43;3.88;;;;;;;19.07;54.67;101145.06;7394552;19;20426;-69
2023/07/06 08:30:09;;;;;;;4.88;3.58;;;;;;;19.13;54.87;101150.94;7395875;19;20022;-67
2023/07/06 08:32:40;;;;;;;9.20;6.35;;;;;;;19.19;54.44;101145.28;7393271;19;20019;-69
2023/07/06 08:35:09;;;;;;;10.27;5.80;;;;;;;19.28;54.20;101151.94;7394046;19;20019;-69
2023/07/06 08:37:38;;;;;;;8.45;6.35;;;;;;;19.34;53.66;101151.63;7395005;19;20039;-68
2023/07/06 08:40:08;;;;;;;4.20;3.20;;;;;;;19.40;53.62;101153.09;7394987;19;20017;-67
2023/07/06 08:42:37;;;;;;;18.25;4.90;;;;;;;19.44;53.18;101156.47;7394969;19;20042;-67
2023/07/06 08:45:07;;;;;;;9.77;5.20;;;;;;;19.47;53.09;101161.63;7394710;19;20082;-68
2023/07/06 08:47:37;;;;;;;7.93;5.10;;;;;;;19.51;52.72;101156.06;7391861;19;20387;-68
2023/07/06 08:50:12;;;;;;;4.70;3.90;;;;;;;19.55;52.62;101159.44;7394768;19;20015;-68
2023/07/06 08:52:42;;;;;;;5.85;3.78;;;;;;;19.62;52.87;101155.47;7394209;19;20082;-69
2023/07/06 08:55:15;;;;;;;5.00;3.20;;;;;;;19.66;52.26;101162.38;7394606;19;20089;-69
2023/07/06 08:57:46;;;;;;;4.45;3.65;;;;;;;19.69;52.17;101162.19;7392851;19;20494;-69
2023/07/06 09:00:25;;;;;;;5.22;3.60;;;;;;;19.69;52.42;101161.34;7393984;19;20066;-68
2023/07/06 09:02:57;;;;;;;4.65;3.55;;;;;;;19.64;52.37;101161.59;7392465;19;20082;-68
2023/07/06 09:05:31;;;;;;;6.18;4.22;;;;;;;19.61;52.10;101159.06;7400925;19;20010;-68
2023/07/06 09:08:00;;;;;;;3.53;3.20;;;;;;;19.63;51.79;101164.34;7394454;19;20025;-68
2023/07/06 09:10:31;;;;;;;5.43;3.15;;;;;;;19.63;52.07;101167.84;7402209;19;20014;-69
2023/07/06 09:13:15;;;;;;;4.90;3.30;;;;;;;19.62;51.34;101163.47;7400763;19;20022;-69
2023/07/06 09:15:44;;;;;;;8.40;4.43;;;;;;;19.64;51.61;101164.25;7399452;19;20014;-68
2023/07/06 09:18:16;;;;;;;5.97;3.63;;;;;;;19.68;50.84;101162.28;7401204;19;20498;-69
2023/07/06 09:20:49;;;;;;;3.33;2.70;;;;;;;19.73;50.70;101154.03;7399134;19;20018;-69
2023/07/06 09:23:18;;;;;;;4.90;2.72;;;;;;;19.83;50.43;101160.66;7400691;19;20086;-69
2023/07/06 09:25:49;;;;;;;5.30;2.95;;;;;;;19.95;50.38;101154.63;7401797;19;20019;-69
2023/07/06 09:28:20;;;;;;;5.97;2.83;;;;;;;20.07;50.27;101152.22;7398766;19;20425;-69
2023/07/06 09:30:50;;;;;;;6.82;2.75;;;;;;;20.20;50.16;101155.94;7401142;19;20010;-68
2023/07/06 09:33:24;;;;;;;3.53;2.90;;;;;;;20.29;49.77;101155.41;7400234;19;20040;-68
2023/07/06 09:35:57;;;;;;;3.10;2.50;;;;;;;20.34;48.77;101153.34;7399320;19;20082;-68
2023/07/06 09:38:27;;;;;;;3.92;2.95;;;;;;;20.32;49.55;101149.94;7401065;19;20042;-68
2023/07/06 09:40:56;;;;;;;4.22;2.42;;;;;;;20.33;49.46;101149.00;7398385;19;20019;-68
2023/07/06 09:43:28;;;;;;;5.88;3.15;;;;;;;20.35;49.10;101154.22;7399442;19;20540;-68
2023/07/06 09:45:58;;;;;;;4.18;3.33;;;;;;;20.36;49.00;101150.63;7401758;19;20089;-68
2023/07/06 09:48:36;;;;;;;4.45;2.63;;;;;;;20.35;48.63;101148.91;7400746;19;20523;-68
2023/07/06 09:51:15;;;;;;;3.38;2.63;;;;;;;20.35;48.45;101151.56;7400847;19;20394;-68
2023/07/06 09:53:49;;;;;;;6.05;4.00;;;;;;;20.38;47.99;101154.03;7398433;19;20051;-69
2023/07/06 09:56:18;;;;;;;6.57;2.40;;;;;;;20.42;48.23;101158.28;7398339;19;20018;-69
2023/07/06 09:58:49;;;;;;;4.03;2.45;;;;;;;20.45;48.52;101162.56;7399132;19;20409;-69
2023/07/06 10:01:27;;;;;;;4.13;2.10;;;;;;;20.46;47.97;101158.94;7400053;19;20011;-69
2023/07/06 10:04:03;;;;;;;6.70;2.65;;;;;;;20.50;47.35;101160.50;7397149;19;20051;-68
2023/07/06 10:06:52;;;;;;;3.40;2.00;;;;;;;20.55;47.21;101152.22;7399334;19;20015;-68
2023/07/06 10:09:26;;;;;;;3.28;2.10;;;;;;;20.58;47.25;101144.06;7397866;19;20078;-68
2023/07/06 10:11:57;;;;;;;4.13;2.08;;;;;;;20.65;46.88;101151.63;7400025;19;20366;-68
2023/07/06 10:14:33;;;;;;;65.25;41.38;;;;;;;20.73;46.55;101147.69;7397781;19;20015;-67
2023/07/06 10:17:18;;;;;;;7.07;4.95;;;;;;;20.82;46.71;101152.47;7400267;19;20086;-68
2023/07/06 10:19:54;;;;;;;10.93;6.35;;;;;;;20.92;45.79;101153.66;7396354;19;20015;-67
2023/07/06 10:22:34;;;;;;;3.22;1.77;;;;;;;21.07;43.89;101151.03;7399376;19;20036;-68
2023/07/06 10:25:18;;;;;;;7.95;5.63;;;;;;;21.21;45.23;101153.72;7400163;19;20082;-71
2023/07/06 10:27:59;;;;;;;2.25;1.75;;;;;;;21.39;44.04;101145.56;7399345;19;20019;-68
2023/07/06 10:30:33;;;;;;;3.38;1.60;;;;;;;21.52;43.65;101149.19;7400479;19;20354;-68
2023/07/06 10:33:02;;;;;;;;;;;;;;;21.55;42.43;101159.72;7399931;19;20019;-67
2023/07/06 10:35:35;;;;;;;2.72;1.60;;;;;;;21.52;43.35;101159.88;7399573;19;19942;-68
2023/07/06 10:38:06;;;;;;;3.03;1.48;;;;;;;21.50;43.77;101159.09;7396460;19;20136;-68
2023/07/06 10:40:37;;;;;;;3.10;1.55;;;;;;;21.46;43.03;101165.59;7397120;19;20014;-68
2023/07/06 10:43:20;;;;;;;2.05;1.38;;;;;;;21.44;42.86;101157.66;7395980;19;20014;-68
2023/07/06 10:45:51;;;;;;;1.70;1.30;;;;;;;21.44;42.94;101148.81;7398329;19;20098;-68
2023/07/06 10:48:30;;;;;;;1.80;1.45;;;;;;;21.48;41.30;101150.31;7395604;19;20368;-68
2023/07/06 10:51:31;;;;;;;3.00;1.23;;;;;;;21.55;40.52;101153.50;7398083;19;20018;-69
2023/07/06 10:54:19;;;;;;;2.70;1.50;;;;;;;21.68;41.30;101145.59;7396372;19;20496;-68
2023/07/06 10:56:51;;;;;;;1.63;1.40;;;;;;;21.76;41.35;101153.97;7399033;19;20022;-68
2023/07/06 10:59:24;;;;;;;3.20;1.63;;;;;;;21.77;41.42;101147.69;7397587;19;20014;-67
2023/07/06 11:02:10;;;;;;;;;;;;;;;21.78;40.35;101160.09;7397210;19;20037;-68
2023/07/06 11:04:57;;;;;;;3.10;1.73;;;;;;;21.78;40.63;101168.09;7396405;19;20348;-68
2023/07/06 11:07:42;;;;;;;1.85;1.23;;;;;;;21.78;40.84;101173.44;7396457;19;20074;-68
2023/07/06 11:10:31;;;;;;;4.68;1.40;;;;;;;21.72;39.64;101168.50;7395657;19;20050;-68
2023/07/06 11:13:15;;;;;;;2.35;1.35;;;;;;;21.63;40.59;101167.25;7396313;19;20019;-68
2023/07/06 11:15:59;;;;;;;3.03;1.27;;;;;;;21.53;39.62;101177.59;7395441;19;20018;-68
2023/07/06 11:18:35;;;;;;;2.15;1.52;;;;;;;21.47;39.92;101175.28;7397914;19;20015;-68
2023/07/06 11:21:12;;;;;;;2.28;1.40;;;;;;;21.43;40.31;101174.66;7396873;19;20011;-69
2023/07/06 11:23:48;;;;;;;2.15;1.50;;;;;;;21.47;40.30;101181.50;7395064;19;20449;-68
2023/07/06 11:26:36;;;;;;;1.60;1.15;;;;;;;21.62;40.29;101178.88;7396477;19;20010;-69
2023/07/06 11:29:07;;;;;;;2.38;1.30;;;;;;;21.84;39.62;101185.53;7397063;19;20015;-68
2023/07/06 11:31:49;;;;;;;2.33;1.20;;;;;;;22.01;39.58;101179.16;7394813;19;20517;-68
2023/07/06 11:34:31;;;;;;;1.65;1.27;;;;;;;22.22;38.66;101177.78;7395246;19;20364;-71
2023/07/06 11:37:07;;;;;;;3.30;1.17;;;;;;;22.47;38.69;101173.56;7394604;19;20387;-68
2023/07/06 11:39:45;;;;;;;1.42;1.00;;;;;;;22.67;38.05;101180.28;7396348;19;20078;-67
2023/07/06 11:42:28;;;;;;;2.00;1.13;;;;;;;22.77;38.12;101183.19;7394834;19;20021;-66
2023/07/06 11:44:57;;;;;;;3.50;1.40;;;;;;;22.81;37.92;101178.50;7394763;19;20082;-68
2023/07/06 11:47:58;;;;;;;3.83;1.60;;;;;;;22.78;37.70;101187.59;7397297;19;20444;-68
2023/07/06 11:50:33;;;;;;;2.38;1.25;;;;;;;22.61;38.56;101184.22;7396559;19;20022;-68